Time;durP1;ratioP1;P1;durP2;ratioP2;P2;SDS_P1;SDS_P2;PMS_P1;PMS_P2;Temp;Humidity;BMP_temperature;BMP_pressure;BME280_temperature;BME280_humidity;BME280_pressure;Samples;Min_cycle;Max_cycle;Signal;HPM_P1;HPM_P2
2021/06/04 00:01:26;;;;;;;5.60;5.10;;;19.20;71.40;;;;;;5027711;28;20033;-68
2021/06/04 00:03:52;;;;;;;6.85;5.53;;;19.10;72.20;;;;;;5032021;28;20148;-69
2021/06/04 00:06:18;;;;;;;7.72;5.38;;;19.10;72.00;;;;;;5020647;28;20041;-69
2021/06/04 00:08:44;;;;;;;6.75;5.05;;;19.10;72.30;;;;;;5028007;28;20094;-69
2021/06/04 00:11:20;;;;;;;5.63;4.93;;;19.10;72.50;;;;;;5027789;28;20045;-68
2021/06/04 00:14:01;;;;;;;5.80;5.20;;;19.10;72.80;;;;;;5027292;28;20025;-65
2021/06/04 00:16:32;;;;;;;5.00;4.50;;;19.20;73.00;;;;;;5018863;28;20029;-68
2021/06/04 00:19:00;;;;;;;6.32;5.05;;;19.20;72.80;;;;;;5021100;28;20021;-68
2021/06/04 00:21:31;;;;;;;5.82;5.20;;;19.20;72.80;;;;;;5023155;28;20038;-68
2021/06/04 00:23:59;;;;;;;5.55;4.60;;;19.30;72.90;;;;;;5025513;28;20064;-68
2021/06/04 00:26:26;;;;;;;7.50;4.90;;;19.30;72.80;;;;;;5023909;28;20068;-68
2021/06/04 00:28:52;;;;;;;4.88;4.47;;;19.30;72.80;;;;;;5029688;28;20025;-68
2021/06/04 00:31:20;;;;;;;5.25;4.13;;;19.30;72.80;;;;;;5017646;28;20030;-68
2021/06/04 00:33:45;;;;;;;6.05;4.60;;;19.30;72.90;;;;;;5027811;28;20040;-65
2021/06/04 00:36:11;;;;;;;6.22;4.90;;;19.20;73.00;;;;;;5027014;28;20025;-68
2021/06/04 00:38:38;;;;;;;8.75;4.95;;;19.20;73.10;;;;;;5028505;28;20516;-68
2021/06/04 00:41:16;;;;;;;4.22;3.92;;;19.20;73.20;;;;;;5026696;28;20074;-68
2021/06/04 00:43:42;;;;;;;5.43;4.30;;;19.10;73.30;;;;;;5029188;28;20017;-68
2021/06/04 00:46:08;;;;;;;6.13;4.60;;;19.10;73.20;;;;;;5023271;28;20555;-69
2021/06/04 00:48:35;;;;;;;5.40;3.90;;;19.20;73.20;;;;;;5025384;28;20044;-68
2021/06/04 00:51:05;;;;;;;4.25;3.60;;;19.10;73.20;;;;;;5028507;28;20480;-68
2021/06/04 00:53:32;;;;;;;3.60;3.22;;;19.10;72.80;;;;;;5023926;28;20022;-68
2021/06/04 00:55:58;;;;;;;4.15;3.35;;;19.10;72.70;;;;;;5043887;28;20148;-68
2021/06/04 00:58:30;;;;;;;4.00;3.22;;;19.00;72.50;;;;;;5026935;28;20112;-68
2021/06/04 01:00:59;;;;;;;6.13;3.78;;;19.00;72.60;;;;;;5027414;28;20042;-68
2021/06/04 01:03:29;;;;;;;5.22;3.60;;;19.00;72.40;;;;;;5028771;28;20123;-68
2021/06/04 01:06:05;;;;;;;6.93;4.07;;;19.00;72.60;;;;;;5026639;28;20025;-68
2021/06/04 01:08:49;;;;;;;4.78;4.35;;;19.00;72.70;;;;;;5022889;28;20029;-68
2021/06/04 01:11:45;;;;;;;5.38;4.50;;;18.90;72.60;;;;;;5028203;28;21885;-68
2021/06/04 01:14:13;;;;;;;5.30;4.65;;;18.80;73.00;;;;;;5027990;28;20032;-68
2021/06/04 01:16:48;;;;;;;6.50;4.80;;;18.70;72.90;;;;;;5025581;28;20525;-68
2021/06/04 01:19:47;;;;;;;7.50;4.80;;;18.60;73.30;;;;;;5029321;28;20033;-68
2021/06/04 01:22:29;;;;;;;5.20;4.70;;;18.60;73.80;;;;;;5024955;28;20025;-68
2021/06/04 01:25:08;;;;;;;5.10;4.43;;;18.50;73.60;;;;;;5026518;28;20033;-68
2021/06/04 01:27:38;;;;;;;4.85;4.45;;;18.40;73.80;;;;;;5024073;28;20045;-68
2021/06/04 01:30:31;;;;;;;4.70;4.30;;;18.40;73.80;;;;;;5029047;28;20025;-68
2021/06/04 01:33:08;;;;;;;;;;;18.40;74.20;;;;;;5024956;28;20569;-68
2021/06/04 01:35:43;;;;;;;5.88;4.47;;;18.40;73.20;;;;;;5024047;28;19909;-68
2021/06/04 01:38:11;;;;;;;4.95;4.45;;;18.30;73.70;;;;;;5025412;28;20030;-68
2021/06/04 01:40:40;;;;;;;5.05;4.55;;;18.30;73.70;;;;;;5026916;28;20037;-68
2021/06/04 01:43:15;;;;;;;5.60;4.65;;;18.20;74.00;;;;;;5027123;28;20037;-68
2021/06/04 01:45:46;;;;;;;5.20;4.70;;;18.10;74.40;;;;;;5022970;28;20025;-68
2021/06/04 01:48:21;;;;;;;5.43;4.47;;;18.10;74.40;;;;;;5025990;28;20104;-68
2021/06/04 01:50:54;;;;;;;4.97;4.43;;;18.10;74.60;;;;;;5022791;28;20044;-68
2021/06/04 01:53:29;;;;;;;7.15;4.47;;;18.10;74.60;;;;;;5021060;28;20386;-69
2021/06/04 01:56:00;;;;;;;5.88;4.45;;;18.10;74.60;;;;;;5024914;28;20025;-68
2021/06/04 01:58:31;;;;;;;6.32;4.50;;;18.10;74.60;;;;;;5026995;28;20033;-68
2021/06/04 02:01:07;;;;;;;5.55;4.63;;;18.10;74.60;;;;;;5025919;28;20034;-67
2021/06/04 02:03:33;;;;;;;5.55;4.70;;;18.10;74.90;;;;;;5027069;28;20026;-68
2021/06/04 02:05:59;;;;;;;4.97;4.55;;;18.10;74.60;;;;;;5018815;28;20056;-68
2021/06/04 02:08:32;;;;;;;5.25;4.75;;;18.10;74.70;;;;;;5022896;28;20509;-68
2021/06/04 02:10:58;;;;;;;5.07;4.50;;;18.10;74.80;;;;;;5025689;28;20037;-68
2021/06/04 02:13:24;;;;;;;5.50;4.45;;;18.10;74.80;;;;;;5028155;28;20036;-68
2021/06/04 02:16:15;;;;;;;6.82;5.32;;;18.10;74.80;;;;;;5024698;28;20017;-68
2021/06/04 02:19:09;;;;;;;7.03;5.00;;;18.10;75.10;;;;;;5029459;28;20029;-68
2021/06/04 02:21:43;;;;;;;6.07;4.75;;;18.00;75.20;;;;;;5027136;28;20024;-68
2021/06/04 02:24:17;;;;;;;7.68;4.90;;;18.00;75.60;;;;;;5028215;28;20068;-68
2021/06/04 02:26:45;;;;;;;5.07;4.40;;;18.00;75.20;;;;;;5024652;28;20021;-68
2021/06/04 02:29:25;;;;;;;8.15;5.32;;;18.00;75.20;;;;;;5027569;28;20022;-65
2021/06/04 02:31:55;;;;;;;9.68;5.28;;;18.00;75.40;;;;;;5023771;28;20067;-68
2021/06/04 02:34:33;;;;;;;7.03;4.82;;;18.00;75.30;;;;;;5028758;28;20040;-68
2021/06/04 02:37:04;;;;;;;5.18;4.32;;;17.90;75.40;;;;;;5030601;28;20041;-68
2021/06/04 02:39:35;;;;;;;6.07;4.45;;;17.90;75.40;;;;;;5025374;28;20112;-66
2021/06/04 02:42:09;;;;;;;6.45;4.80;;;17.90;75.40;;;;;;5029938;28;20052;-68
2021/06/04 02:44:51;;;;;;;5.60;5.00;;;17.90;75.30;;;;;;5030227;28;20025;-68
2021/06/04 02:47:20;;;;;;;;;;;17.80;75.30;;;;;;5029723;28;20034;-69
2021/06/04 02:49:46;;;;;;;7.20;4.50;;;17.80;74.50;;;;;;5030589;28;19916;-69
2021/06/04 02:52:36;;;;;;;5.25;4.43;;;17.70;74.90;;;;;;5028932;28;20033;-68
2021/06/04 02:55:09;;;;;;;6.57;4.72;;;17.70;75.50;;;;;;5019937;28;20355;-69
2021/06/04 02:57:37;;;;;;;7.70;4.78;;;17.70;75.20;;;;;;5029743;28;20025;-68
2021/06/04 03:00:13;;;;;;;5.65;4.70;;;17.70;75.20;;;;;;5027274;28;20037;-68
2021/06/04 03:02:39;;;;;;;5.07;4.55;;;17.70;75.40;;;;;;5027715;28;20159;-68
2021/06/04 03:05:15;;;;;;;4.50;4.10;;;17.60;75.30;;;;;;5029930;28;20101;-68
2021/06/04 03:07:43;;;;;;;6.47;4.72;;;17.60;75.50;;;;;;5029504;28;20025;-68
2021/06/04 03:10:44;;;;;;;6.45;4.38;;;17.60;75.40;;;;;;5023751;28;20066;-68
2021/06/04 03:13:16;;;;;;;6.45;5.20;;;17.50;75.60;;;;;;5027193;28;20037;-68
2021/06/04 03:15:47;;;;;;;4.80;4.30;;;17.50;75.40;;;;;;5030061;28;20075;-68
2021/06/04 03:18:23;;;;;;;5.80;4.40;;;17.50;75.60;;;;;;5029297;28;20036;-68
2021/06/04 03:20:49;;;;;;;6.60;4.78;;;17.50;75.50;;;;;;5028928;28;20029;-68
2021/06/04 03:23:20;;;;;;;5.13;4.63;;;17.50;75.40;;;;;;5021562;28;20038;-68
2021/06/04 03:25:49;;;;;;;5.95;4.70;;;17.40;75.60;;;;;;5027755;28;20108;-68
2021/06/04 03:28:18;;;;;;;6.55;5.35;;;17.40;75.50;;;;;;5026589;28;20057;-69
2021/06/04 03:30:46;;;;;;;7.05;5.30;;;17.40;75.60;;;;;;5029771;28;20083;-68
2021/06/04 03:33:18;;;;;;;8.00;5.40;;;17.40;75.60;;;;;;5031681;28;20037;-68
2021/06/04 03:35:45;;;;;;;;;;;17.30;75.90;;;;;;5028610;28;20021;-68
2021/06/04 03:38:12;;;;;;;7.82;5.50;;;17.30;75.30;;;;;;5028176;28;19913;-68
2021/06/04 03:40:38;;;;;;;12.90;5.60;;;17.20;75.50;;;;;;5025756;28;20643;-68
2021/06/04 03:43:07;;;;;;;7.00;5.53;;;17.20;75.70;;;;;;5041210;28;20034;-68
2021/06/04 03:45:37;;;;;;;8.93;5.80;;;17.20;75.80;;;;;;5027598;28;20033;-68
2021/06/04 03:48:05;;;;;;;5.63;5.13;;;17.20;75.90;;;;;;5031441;28;20090;-68
2021/06/04 03:50:31;;;;;;;9.13;5.43;;;17.20;76.00;;;;;;5028081;28;20018;-68
2021/06/04 03:52:56;;;;;;;7.57;4.90;;;17.20;76.00;;;;;;5029047;28;20040;-68
2021/06/04 03:55:25;;;;;;;5.82;5.22;;;17.20;76.10;;;;;;5029252;28;20064;-68
2021/06/04 03:57:51;;;;;;;7.95;5.43;;;17.20;76.20;;;;;;5027923;28;20032;-68
2021/06/04 04:00:36;;;;;;;7.13;5.18;;;17.20;76.10;;;;;;5027920;28;20092;-68
2021/06/04 04:03:02;;;;;;;7.35;5.25;;;17.30;76.50;;;;;;5026259;28;20033;-68
2021/06/04 04:05:28;;;;;;;6.95;5.03;;;17.20;76.10;;;;;;5026552;28;20056;-68
2021/06/04 04:07:53;;;;;;;7.15;5.60;;;17.20;76.30;;;;;;5027475;28;20390;-68
2021/06/04 04:10:23;;;;;;;6.30;5.63;;;17.30;76.40;;;;;;5024391;28;20021;-68
2021/06/04 04:12:49;;;;;;;9.43;5.88;;;17.30;76.50;;;;;;5027313;28;20385;-68
2021/06/04 04:15:17;;;;;;;7.68;5.70;;;17.30;76.40;;;;;;5027193;28;20029;-68
2021/06/04 04:17:48;;;;;;;6.43;5.80;;;17.30;76.40;;;;;;5025279;28;20045;-68
2021/06/04 04:20:22;;;;;;;7.60;5.72;;;17.30;76.50;;;;;;5027708;28;20028;-68
2021/06/04 04:22:48;;;;;;;8.70;5.90;;;17.30;76.50;;;;;;5025017;28;20462;-68
2021/06/04 04:25:14;;;;;;;8.82;6.32;;;17.30;76.30;;;;;;5023902;28;20026;-68
2021/06/04 04:27:40;;;;;;;7.30;5.97;;;17.30;76.30;;;;;;5024547;28;20045;-68
2021/06/04 04:30:08;;;;;;;9.82;6.15;;;17.20;76.20;;;;;;5022466;28;20060;-68
2021/06/04 04:32:34;;;;;;;8.95;6.32;;;17.20;76.30;;;;;;5018209;28;20059;-68
2021/06/04 04:34:59;;;;;;;9.38;6.22;;;17.20;76.40;;;;;;5021726;28;20029;-68
2021/06/04 04:37:25;;;;;;;7.85;6.60;;;17.10;76.60;;;;;;5028169;28;20030;-68
2021/06/04 04:39:51;;;;;;;7.85;6.82;;;17.10;76.70;;;;;;5026351;28;20101;-68
2021/06/04 04:42:19;;;;;;;7.32;6.43;;;17.20;76.70;;;;;;5027059;28;20104;-68
2021/06/04 04:44:46;;;;;;;8.90;6.40;;;17.20;76.70;;;;;;5024449;28;20386;-68
2021/06/04 04:47:17;;;;;;;7.03;5.97;;;17.20;76.70;;;;;;5028060;28;20132;-68
2021/06/04 04:49:43;;;;;;;8.63;6.15;;;17.20;76.90;;;;;;5025927;28;20040;-68
2021/06/04 04:52:12;;;;;;;15.07;6.50;;;17.20;76.70;;;;;;5026441;28;20025;-68
2021/06/04 04:54:44;;;;;;;8.07;6.50;;;17.30;76.70;;;;;;5027924;28;20649;-68
2021/06/04 04:57:11;;;;;;;7.68;5.72;;;17.20;76.70;;;;;;5026500;28;20025;-68
2021/06/04 04:59:37;;;;;;;8.02;6.15;;;17.20;76.60;;;;;;5029949;28;20037;-68
2021/06/04 05:02:03;;;;;;;6.97;6.28;;;17.20;77.00;;;;;;5027061;28;20402;-68
2021/06/04 05:04:29;;;;;;;8.10;5.90;;;17.30;77.10;;;;;;5027974;28;20136;-68
2021/06/04 05:06:55;;;;;;;8.27;6.50;;;17.30;77.00;;;;;;5026757;28;20389;-68
2021/06/04 05:09:21;;;;;;;8.18;6.30;;;17.40;77.00;;;;;;5039158;28;20674;-68
2021/06/04 05:11:48;;;;;;;7.20;6.45;;;17.40;77.00;;;;;;5026479;28;20049;-68
2021/06/04 05:14:14;;;;;;;7.00;6.30;;;17.50;77.10;;;;;;5024416;28;20168;-68
2021/06/04 05:16:39;;;;;;;9.20;7.00;;;17.50;77.10;;;;;;5026347;28;20041;-68
2021/06/04 05:19:05;;;;;;;8.18;6.22;;;17.50;77.00;;;;;;5024363;28;20026;-68
2021/06/04 05:21:32;;;;;;;7.32;6.50;;;17.60;77.00;;;;;;5023182;28;20022;-68
2021/06/04 05:23:58;;;;;;;9.20;6.07;;;17.60;77.00;;;;;;5023327;28;20033;-68
2021/06/04 05:26:24;;;;;;;8.10;6.05;;;17.60;77.10;;;;;;5020929;28;20030;-68
2021/06/04 05:28:50;;;;;;;8.48;6.28;;;17.70;77.20;;;;;;5029929;28;20029;-68
2021/06/04 05:31:16;;;;;;;6.60;5.93;;;17.70;77.10;;;;;;5025425;28;20065;-68
2021/06/04 05:33:44;;;;;;;9.00;6.57;;;17.80;77.10;;;;;;5026775;28;20021;-69
2021/06/04 05:36:14;;;;;;;7.25;6.50;;;17.90;77.20;;;;;;5041627;28;20580;-69
2021/06/04 05:38:40;;;;;;;9.48;6.40;;;17.90;77.10;;;;;;5028197;28;20057;-68
2021/06/04 05:41:05;;;;;;;7.68;6.07;;;18.00;77.10;;;;;;5026742;28;20018;-68
2021/06/04 05:43:34;;;;;;;9.30;6.70;;;18.00;77.10;;;;;;5026426;28;20505;-68
2021/06/04 05:46:00;;;;;;;11.63;6.55;;;18.10;77.20;;;;;;5027483;28;20083;-68
2021/06/04 05:48:26;;;;;;;9.57;6.93;;;18.10;77.20;;;;;;5029463;28;20025;-68
2021/06/04 05:50:56;;;;;;;7.57;6.13;;;18.20;77.30;;;;;;5026496;28;20068;-68
2021/06/04 05:53:25;;;;;;;8.70;6.35;;;18.30;77.20;;;;;;5026639;28;20033;-68
2021/06/04 05:55:52;;;;;;;8.00;5.80;;;18.40;77.10;;;;;;5027449;28;20112;-69
2021/06/04 05:58:20;;;;;;;5.80;5.20;;;18.40;76.70;;;;;;5028973;28;20022;-68
2021/06/04 06:00:50;;;;;;;8.85;5.70;;;18.50;76.90;;;;;;5029099;28;20029;-68
2021/06/04 06:03:20;;;;;;;9.57;5.72;;;18.50;76.50;;;;;;5029997;28;20032;-68
2021/06/04 06:05:46;;;;;;;6.50;5.18;;;18.50;76.60;;;;;;5024630;28;20096;-69
2021/06/04 06:08:12;;;;;;;7.53;5.90;;;18.70;76.50;;;;;;5022698;28;20486;-68
2021/06/04 06:10:38;;;;;;;14.23;5.90;;;18.70;76.10;;;;;;5022248;28;20034;-68
2021/06/04 06:13:04;;;;;;;6.13;5.47;;;18.70;75.80;;;;;;5028088;28;20478;-73
2021/06/04 06:15:31;;;;;;;5.75;5.18;;;18.70;75.80;;;;;;5027527;28;20037;-68
2021/06/04 06:17:57;;;;;;;6.00;5.38;;;18.70;75.70;;;;;;5027058;28;20060;-68
2021/06/04 06:20:27;;;;;;;6.35;5.10;;;18.80;75.80;;;;;;5027323;28;20506;-68
2021/06/04 06:22:54;;;;;;;9.25;4.95;;;18.90;76.10;;;;;;5026754;28;20104;-67
2021/06/04 06:25:29;;;;;;;7.43;5.13;;;19.00;75.90;;;;;;5028388;28;20135;-69
2021/06/04 06:27:56;;;;;;;5.10;4.60;;;19.10;75.80;;;;;;5028034;28;20025;-68
2021/06/04 06:30:24;;;;;;;6.38;4.95;;;19.20;75.50;;;;;;5028399;28;20034;-67
2021/06/04 06:32:50;;;;;;;4.82;4.30;;;19.30;76.10;;;;;;5029709;28;20030;-67
2021/06/04 06:35:17;;;;;;;4.85;4.22;;;19.30;75.20;;;;;;5023625;28;20036;-70
2021/06/04 06:37:43;;;;;;;6.78;4.55;;;19.50;75.20;;;;;;5028574;28;20052;-68
2021/06/04 06:40:11;;;;;;;9.55;5.70;;;19.50;75.10;;;;;;5025430;28;20022;-68
2021/06/04 06:42:37;;;;;;;8.07;5.70;;;19.60;74.80;;;;;;5028811;28;20032;-68
2021/06/04 06:45:06;;;;;;;6.63;5.13;;;19.60;74.40;;;;;;5028037;28;20026;-68
2021/06/04 06:47:31;;;;;;;5.93;4.72;;;19.60;74.50;;;;;;5028304;28;20109;-69
2021/06/04 06:49:57;;;;;;;5.38;4.50;;;19.60;74.50;;;;;;5029106;28;20464;-68
2021/06/04 06:52:22;;;;;;;5.70;4.95;;;19.70;74.70;;;;;;5019844;28;20025;-68
2021/06/04 06:54:48;;;;;;;6.30;5.22;;;19.80;74.60;;;;;;5023282;28;20029;-68
2021/06/04 06:57:14;;;;;;;7.18;4.95;;;19.80;74.40;;;;;;5028703;28;20693;-68
2021/06/04 06:59:39;;;;;;;6.47;5.13;;;19.90;74.50;;;;;;5026222;28;20379;-68
2021/06/04 07:02:09;;;;;;;6.07;5.45;;;19.90;74.30;;;;;;5021151;28;20022;-68
2021/06/04 07:04:35;;;;;;;7.30;4.85;;;20.00;74.20;;;;;;5041876;28;20183;-68
2021/06/04 07:07:01;;;;;;;8.25;5.20;;;20.10;74.20;;;;;;5028038;28;20558;-68
2021/06/04 07:09:27;;;;;;;7.95;5.53;;;20.20;74.30;;;;;;5041855;28;20052;-69
2021/06/04 07:11:55;;;;;;;6.53;5.38;;;20.30;74.30;;;;;;5034857;28;20041;-69
2021/06/04 07:14:30;;;;;;;6.75;5.05;;;20.40;74.20;;;;;;5028253;28;20037;-68
2021/06/04 07:16:56;;;;;;;6.75;4.30;;;20.50;74.00;;;;;;5031323;28;20021;-68
2021/06/04 07:19:22;;;;;;;5.70;5.00;;;20.60;73.80;;;;;;5032481;28;20029;-68
2021/06/04 07:21:48;;;;;;;6.78;4.80;;;20.80;73.70;;;;;;5030318;28;20494;-68
2021/06/04 07:24:14;;;;;;;5.45;4.55;;;20.90;73.50;;;;;;5029611;28;20042;-68
2021/06/04 07:26:44;;;;;;;6.18;4.40;;;21.00;73.30;;;;;;5030714;28;20029;-69
2021/06/04 07:29:11;;;;;;;5.97;4.40;;;21.20;73.10;;;;;;5032608;28;20117;-68
2021/06/04 07:31:38;;;;;;;4.50;3.83;;;21.40;72.70;;;;;;5031500;28;20029;-68
2021/06/04 07:34:05;;;;;;;7.18;4.30;;;21.60;72.70;;;;;;5031086;28;20520;-69
2021/06/04 07:36:38;;;;;;;5.10;4.43;;;21.90;72.40;;;;;;5031971;28;20033;-67
2021/06/04 07:39:07;;;;;;;4.95;3.70;;;22.20;72.00;;;;;;5032123;28;20111;-67
2021/06/04 07:41:33;;;;;;;5.75;3.67;;;22.60;71.50;;;;;;5030157;28;20482;-68
2021/06/04 07:43:59;;;;;;;6.57;3.80;;;23.00;70.90;;;;;;5031243;28;20037;-69
2021/06/04 07:46:26;;;;;;;4.00;3.60;;;23.40;70.00;;;;;;5030137;28;20040;-68
2021/06/04 07:48:54;;;;;;;5.18;4.38;;;23.80;69.60;;;;;;5030675;28;20036;-70
2021/06/04 07:51:27;;;;;;;6.45;3.97;;;24.10;69.10;;;;;;5026895;28;20022;-70
2021/06/04 07:53:52;;;;;;;6.95;3.85;;;24.40;68.60;;;;;;5031038;28;20041;-71
2021/06/04 07:56:19;;;;;;;4.93;3.80;;;24.80;67.90;;;;;;5030644;28;21665;-68
2021/06/04 07:58:46;;;;;;;3.90;3.20;;;25.00;66.80;;;;;;5020765;28;20018;-68
2021/06/04 08:01:13;;;;;;;6.50;2.85;;;25.10;66.30;;;;;;5020051;28;20022;-68
2021/06/04 08:03:39;;;;;;;4.53;3.33;;;25.60;65.70;;;;;;5019296;28;20037;-68
2021/06/04 08:06:06;;;;;;;2.95;2.65;;;26.00;64.80;;;;;;5028143;28;20101;-70
2021/06/04 08:08:34;;;;;;;4.70;2.83;;;26.50;63.90;;;;;;5022120;28;20060;-69
2021/06/04 08:11:00;;;;;;;3.72;3.40;;;26.90;63.10;;;;;;5019243;28;20055;-66
2021/06/04 08:13:26;;;;;;;3.85;2.70;;;27.20;62.00;;;;;;5018389;28;20033;-67
2021/06/04 08:16:01;;;;;;;7.07;2.97;;;27.50;61.40;;;;;;5020406;28;20079;-67
2021/06/04 08:18:31;;;;;;;6.20;2.78;;;27.80;60.10;;;;;;5054599;22;20047;-70
2021/06/04 08:20:57;;;;;;;2.40;2.20;;;28.00;59.80;;;;;;5068740;28;20028;-70
2021/06/04 08:23:27;;;;;;;2.35;2.10;;;28.30;59.90;;;;;;5065827;28;20020;-68
2021/06/04 08:25:57;;;;;;;2.95;2.65;;;28.70;58.70;;;;;;5070226;28;20023;-69
2021/06/04 08:28:23;;;;;;;5.05;2.63;;;29.10;58.10;;;;;;5068614;28;20025;-69
2021/06/04 08:30:49;;;;;;;4.22;2.50;;;29.60;57.00;;;;;;5064420;28;20472;-69
2021/06/04 08:33:27;;;;;;;3.78;1.90;;;29.90;55.70;;;;;;5063013;28;20036;-67
2021/06/04 08:35:53;;;;;;;2.47;1.90;;;30.40;54.50;;;;;;5056499;28;20092;-68
2021/06/04 08:38:20;;;;;;;2.00;1.80;;;30.80;53.90;;;;;;5066739;28;20025;-67
2021/06/04 08:40:46;;;;;;;2.15;2.05;;;31.30;52.70;;;;;;5066426;28;20044;-68
2021/06/04 08:43:16;;;;;;;3.08;1.83;;;31.70;51.60;;;;;;5064320;28;20036;-69
2021/06/04 08:46:03;;;;;;;1.95;1.73;;;32.10;50.60;;;;;;5067371;28;20016;-68
2021/06/04 08:48:36;;;;;;;2.40;1.50;;;32.70;49.40;;;;;;5061617;28;20032;-67
2021/06/04 08:51:10;;;;;;;1.92;1.77;;;33.00;47.80;;;;;;5065274;28;20032;-68
2021/06/04 08:53:59;;;;;;;1.60;1.50;;;33.50;48.10;;;;;;5065262;28;20044;-66
2021/06/04 08:56:35;;;;;;;2.80;1.60;;;33.90;46.50;;;;;;5057368;28;20028;-67
2021/06/04 08:59:00;;;;;;;2.60;1.55;;;34.20;45.80;;;;;;5065535;28;20036;-68
2021/06/04 09:01:36;;;;;;;3.63;1.40;;;34.50;45.60;;;;;;5061119;28;20028;-66
2021/06/04 09:04:15;;;;;;;4.95;1.60;;;34.70;45.60;;;;;;5060039;28;20059;-67
2021/06/04 09:06:56;;;;;;;3.20;1.48;;;34.90;44.80;;;;;;5065449;28;20086;-68
2021/06/04 09:09:28;;;;;;;;;;;35.20;44.80;;;;;;5064598;28;20480;-67
2021/06/04 09:11:59;;;;;;;2.75;1.67;;;35.50;46.80;;;;;;5069306;28;19955;-69
2021/06/04 09:14:26;;;;;;;3.15;1.52;;;35.40;44.70;;;;;;5070775;28;20039;-69
2021/06/04 09:17:06;;;;;;;4.10;1.50;;;35.50;44.60;;;;;;5068361;28;20056;-67
2021/06/04 09:19:34;;;;;;;3.65;1.50;;;35.60;43.40;;;;;;5062665;28;20049;-67
2021/06/04 09:22:00;;;;;;;2.65;1.48;;;35.80;43.50;;;;;;5066626;28;20055;-67
2021/06/04 09:24:33;;;;;;;1.80;1.50;;;36.10;43.00;;;;;;5082797;28;20733;-67
2021/06/04 09:26:59;;;;;;;4.90;1.52;;;36.50;42.50;;;;;;5068288;28;20034;-68
2021/06/04 09:29:29;;;;;;;2.45;1.60;;;37.10;42.00;;;;;;5064509;28;20404;-68
2021/06/04 09:31:58;;;;;;;3.05;1.63;;;37.70;41.50;;;;;;5060754;28;20025;-68
2021/06/04 09:34:28;;;;;;;2.83;1.55;;;38.10;40.50;;;;;;5063739;28;20028;-68
2021/06/04 09:37:11;;;;;;;2.95;1.55;;;38.20;39.90;;;;;;5065642;28;20039;-69
2021/06/04 09:39:39;;;;;;;3.25;1.48;;;38.30;39.60;;;;;;5066558;28;20059;-68
2021/06/04 09:42:14;;;;;;;2.20;1.60;;;38.50;39.50;;;;;;5063902;28;20523;-68
2021/06/04 09:45:01;;;;;;;3.25;1.50;;;38.50;38.30;;;;;;5059837;28;20036;-67
2021/06/04 09:47:42;;;;;;;4.68;2.10;;;38.50;39.00;;;;;;5069516;28;20052;-69
2021/06/04 09:50:23;;;;;;;3.28;1.75;;;38.60;38.40;;;;;;5065846;28;20423;-69
2021/06/04 09:53:00;;;;;;;;;;;38.40;37.80;;;;;;5068027;28;20033;-69
2021/06/04 09:55:32;;;;;;;2.17;1.80;;;38.00;40.10;;;;;;5069348;28;19970;-69
2021/06/04 09:58:00;;;;;;;3.85;1.75;;;37.50;38.80;;;;;;5068688;28;20050;-69
2021/06/04 10:00:34;;;;;;;2.33;1.60;;;37.20;39.20;;;;;;5069671;28;20050;-69
2021/06/04 10:03:17;;;;;;;3.42;1.98;;;37.00;39.60;;;;;;5069983;28;20142;-70
2021/06/04 10:05:44;;;;;;;1.67;1.50;;;36.80;39.90;;;;;;5067472;28;20407;-70
2021/06/04 10:08:27;;;;;;;1.83;1.58;;;36.60;39.60;;;;;;5062755;28;20025;-69
2021/06/04 10:11:14;;;;;;;2.97;1.27;;;36.20;39.10;;;;;;5063551;28;20021;-68
2021/06/04 10:13:46;;;;;;;3.45;1.67;;;35.60;40.20;;;;;;5065082;28;20024;-69
2021/06/04 10:16:46;;;;;;;4.68;1.70;;;35.30;40.20;;;;;;5066566;28;20025;-69
2021/06/04 10:19:36;;;;;;;7.23;2.07;;;34.80;40.60;;;;;;5069623;28;20052;-69
2021/06/04 10:22:26;;;;;;;7.20;1.48;;;34.40;41.20;;;;;;5061868;28;20028;-69
2021/06/04 10:25:13;;;;;;;5.13;1.80;;;33.90;41.40;;;;;;5052781;28;20424;-68
2021/06/04 10:27:54;;;;;;;3.60;1.50;;;33.40;41.70;;;;;;5051688;28;20033;-69
2021/06/04 10:30:26;;;;;;;8.80;1.92;;;32.80;41.80;;;;;;5066479;28;20498;-69
2021/06/04 10:33:13;;;;;;;2.92;1.80;;;32.20;42.50;;;;;;5059206;28;20052;-69
2021/06/04 10:35:43;;;;;;;3.70;1.70;;;31.70;43.00;;;;;;5060605;28;20068;-68
2021/06/04 10:38:22;;;;;;;1.83;1.73;;;31.10;43.70;;;;;;5056904;28;20480;-68
2021/06/04 10:40:56;;;;;;;2.00;1.50;;;30.60;44.10;;;;;;5069434;28;20664;-68
2021/06/04 10:43:32;;;;;;;3.38;1.90;;;30.10;44.90;;;;;;5070391;28;20029;-68
2021/06/04 10:46:24;;;;;;;3.03;1.60;;;29.60;45.70;;;;;;5069507;28;20067;-68
2021/06/04 10:48:55;;;;;;;3.35;1.73;;;29.20;46.60;;;;;;5071327;28;20060;-68
2021/06/04 10:51:39;;;;;;;2.50;1.65;;;28.90;47.00;;;;;;5071340;28;20024;-68
2021/06/04 10:54:18;;;;;;;3.33;1.70;;;28.50;47.10;;;;;;5069917;28;20028;-68
2021/06/04 10:56:58;;;;;;;2.38;1.58;;;28.30;47.70;;;;;;5073302;28;20218;-68
2021/06/04 10:59:34;;;;;;;2.67;1.90;;;28.10;48.10;;;;;;5071293;28;20031;-68
2021/06/04 11:02:14;;;;;;;4.30;1.63;;;27.90;48.10;;;;;;5073006;28;20108;-68
2021/06/04 11:05:08;;;;;;;3.58;1.77;;;27.70;48.50;;;;;;5070855;28;20036;-68
2021/06/04 11:08:07;;;;;;;3.50;2.47;;;27.60;48.70;;;;;;5072400;28;20476;-68
2021/06/04 11:11:01;;;;;;;5.53;1.95;;;27.50;49.10;;;;;;5070585;28;20123;-69
2021/06/04 11:13:51;;;;;;;2.22;1.70;;;27.50;49.60;;;;;;5072680;28;20058;-67
2021/06/04 11:16:28;;;;;;;4.65;1.88;;;27.50;49.80;;;;;;5070175;28;20029;-68
2021/06/04 11:19:35;;;;;;;2.67;1.70;;;27.40;49.80;;;;;;5070362;28;20037;-68
2021/06/04 11:22:13;;;;;;;3.80;2.03;;;27.30;50.20;;;;;;5054528;28;20036;-68
2021/06/04 11:24:57;;;;;;;3.38;1.80;;;27.30;50.30;;;;;;5071749;28;20032;-68
2021/06/04 11:27:39;;;;;;;4.28;2.65;;;27.30;50.10;;;;;;5072410;28;20029;-68
2021/06/04 11:30:28;;;;;;;2.08;1.83;;;27.30;50.50;;;;;;5071007;28;20031;-68
2021/06/04 11:33:09;;;;;;;3.20;1.60;;;27.30;50.30;;;;;;5072741;28;20519;-69
2021/06/04 11:35:40;;;;;;;3.83;1.75;;;27.30;50.80;;;;;;5069647;28;20036;-69
2021/06/04 11:38:29;;;;;;;3.55;1.40;;;27.20;50.60;;;;;;5070327;28;20025;-68
2021/06/04 11:41:09;;;;;;;3.15;1.67;;;27.10;50.70;;;;;;5063772;28;20025;-68
2021/06/04 11:43:38;;;;;;;3.38;1.80;;;27.00;51.40;;;;;;5070665;28;20082;-69
2021/06/04 11:46:13;;;;;;;2.55;1.70;;;27.00;51.90;;;;;;5060384;28;20489;-69
2021/06/04 11:49:00;;;;;;;5.30;1.70;;;26.90;52.40;;;;;;5067224;28;20078;-69
2021/06/04 11:51:39;;;;;;;2.30;1.80;;;26.80;52.20;;;;;;5060593;28;20040;-68
2021/06/04 11:54:27;;;;;;;2.58;1.60;;;26.80;52.20;;;;;;5070878;28;20107;-68
2021/06/04 11:57:03;;;;;;;3.13;1.88;;;26.80;52.30;;;;;;5072154;28;20046;-68
2021/06/04 11:59:46;;;;;;;6.35;2.20;;;26.90;52.30;;;;;;5064605;28;20078;-68
2021/06/04 12:02:49;;;;;;;4.30;1.90;;;27.00;52.60;;;;;;5069230;28;20025;-68
2021/06/04 12:05:17;;;;;;;2.78;1.70;;;27.10;52.60;;;;;;5070415;28;20028;-68
2021/06/04 12:08:21;;;;;;;6.32;2.30;;;27.20;52.80;;;;;;5071057;28;20127;-68
2021/06/04 12:10:49;;;;;;;4.50;2.05;;;27.20;53.00;;;;;;5070738;28;20039;-68
2021/06/04 12:13:41;;;;;;;2.60;2.22;;;27.30;53.20;;;;;;5055664;28;20033;-68
2021/06/04 12:16:25;;;;;;;3.92;1.75;;;27.30;53.40;;;;;;5064478;28;20052;-68
2021/06/04 12:19:26;;;;;;;3.03;1.58;;;27.40;53.30;;;;;;5060989;28;20033;-68
2021/06/04 12:22:23;;;;;;;3.15;1.90;;;27.40;52.90;;;;;;5053511;28;20549;-68
2021/06/04 12:24:51;;;;;;;4.57;2.00;;;27.40;53.60;;;;;;5046526;28;20116;-67
2021/06/04 12:27:16;;;;;;;2.75;2.00;;;27.30;53.90;;;;;;5060817;28;20559;-70
2021/06/04 12:29:46;;;;;;;2.55;1.83;;;27.20;54.60;;;;;;5060379;28;20097;-67
2021/06/04 12:32:23;;;;;;;4.38;2.15;;;27.20;55.30;;;;;;5068954;28;20039;-69
2021/06/04 12:34:48;;;;;;;5.78;1.95;;;27.20;55.20;;;;;;5068799;28;20077;-68
2021/06/04 12:37:20;;;;;;;3.67;2.22;;;27.20;55.00;;;;;;5070823;28;20028;-69
2021/06/04 12:40:12;;;;;;;;;;;27.20;55.30;;;;;;5063381;28;20043;-69
2021/06/04 12:43:04;;;;;;;3.35;2.20;;;27.10;54.80;;;;;;5070724;28;19912;-69
2021/06/04 12:45:39;;;;;;;3.10;2.17;;;26.90;55.00;;;;;;5068143;28;20078;-69
2021/06/04 12:48:30;;;;;;;2.17;1.77;;;26.70;54.70;;;;;;5070784;28;20033;-68
2021/06/04 12:50:56;;;;;;;4.50;2.10;;;26.60;55.10;;;;;;5064120;28;20070;-69
2021/06/04 12:53:40;;;;;;;2.53;1.80;;;26.50;55.10;;;;;;5069816;28;20033;-67
2021/06/04 12:56:06;;;;;;;4.38;2.35;;;26.30;55.80;;;;;;5068606;28;20044;-69
2021/06/04 12:58:33;;;;;;;4.65;1.95;;;26.20;55.60;;;;;;5070073;28;20107;-71
2021/06/04 13:01:19;;;;;;;4.20;1.95;;;26.20;55.80;;;;;;5061331;28;20036;-68
2021/06/04 13:04:01;;;;;;;4.20;1.85;;;26.20;56.00;;;;;;5069754;28;20052;-69
2021/06/04 13:06:29;;;;;;;;;;;26.10;55.70;;;;;;5070448;28;20025;-68
2021/06/04 13:08:55;;;;;;;5.78;1.92;;;26.10;55.40;;;;;;5058682;28;19908;-69
2021/06/04 13:11:45;;;;;;;3.42;1.60;;;26.00;55.80;;;;;;5051767;28;20384;-68
2021/06/04 13:14:24;;;;;;;6.30;1.92;;;26.00;56.30;;;;;;5069376;28;20090;-69
2021/06/04 13:16:52;;;;;;;5.57;1.75;;;25.90;56.20;;;;;;5065528;28;20543;-69